sensor_id;sensor_type;location;lat;lon;timestamp;P1;durP1;ratioP1;P2;durP2;ratioP2
49123;SDS011;48506;48.202;16.274;2023-10-13T00:00:33;12.93;;;5.47;;
49123;SDS011;48506;48.202;16.274;2023-10-13T00:03:08;12.38;;;6.28;;
49123;SDS011;48506;48.202;16.274;2023-10-13T00:05:41;13.63;;;5.50;;
49123;SDS011;48506;48.202;16.274;2023-10-13T00:08:08;11.02;;;6.05;;
49123;SDS011;48506;48.202;16.274;2023-10-13T00:10:35;9.60;;;5.13;;
49123;SDS011;48506;48.202;16.274;2023-10-13T00:13:02;10.30;;;6.72;;
49123;SDS011;48506;48.202;16.274;2023-10-13T00:15:38;9.10;;;5.22;;
49123;SDS011;48506;48.202;16.274;2023-10-13T00:18:11;10.02;;;6.20;;
49123;SDS011;48506;48.202;16.274;2023-10-13T00:20:39;12.95;;;6.20;;
49123;SDS011;48506;48.202;16.274;2023-10-13T00:23:12;11.77;;;5.40;;
49123;SDS011;48506;48.202;16.274;2023-10-13T00:25:38;12.93;;;5.18;;
49123;SDS011;48506;48.202;16.274;2023-10-13T00:28:18;9.57;;;5.93;;
49123;SDS011;48506;48.202;16.274;2023-10-13T00:30:50;9.90;;;6.15;;
49123;SDS011;48506;48.202;16.274;2023-10-13T00:33:25;11.32;;;6.15;;
49123;SDS011;48506;48.202;16.274;2023-10-13T00:35:57;11.23;;;5.68;;
49123;SDS011;48506;48.202;16.274;2023-10-13T00:38:24;12.75;;;6.63;;
49123;SDS011;48506;48.202;16.274;2023-10-13T00:40:52;11.75;;;6.13;;
49123;SDS011;48506;48.202;16.274;2023-10-13T00:43:20;12.00;;;5.80;;
49123;SDS011;48506;48.202;16.274;2023-10-13T00:45:48;18.30;;;5.85;;
49123;SDS011;48506;48.202;16.274;2023-10-13T00:48:21;9.98;;;5.97;;
49123;SDS011;48506;48.202;16.274;2023-10-13T00:51:01;15.40;;;6.75;;
49123;SDS011;48506;48.202;16.274;2023-10-13T00:53:31;13.50;;;6.43;;
49123;SDS011;48506;48.202;16.274;2023-10-13T00:56:05;8.85;;;5.85;;
49123;SDS011;48506;48.202;16.274;2023-10-13T00:58:33;12.95;;;6.57;;
49123;SDS011;48506;48.202;16.274;2023-10-13T01:01:02;11.80;;;5.97;;
49123;SDS011;48506;48.202;16.274;2023-10-13T01:03:50;13.18;;;7.15;;
49123;SDS011;48506;48.202;16.274;2023-10-13T01:06:21;17.80;;;6.97;;
49123;SDS011;48506;48.202;16.274;2023-10-13T01:09:07;12.85;;;6.03;;
49123;SDS011;48506;48.202;16.274;2023-10-13T01:11:41;13.32;;;6.35;;
49123;SDS011;48506;48.202;16.274;2023-10-13T01:14:14;10.15;;;7.05;;
49123;SDS011;48506;48.202;16.274;2023-10-13T01:16:43;11.43;;;6.23;;
49123;SDS011;48506;48.202;16.274;2023-10-13T01:19:13;9.90;;;7.30;;
49123;SDS011;48506;48.202;16.274;2023-10-13T01:21:43;12.77;;;7.80;;
49123;SDS011;48506;48.202;16.274;2023-10-13T01:24:10;13.85;;;6.93;;
49123;SDS011;48506;48.202;16.274;2023-10-13T01:26:38;10.88;;;6.93;;
49123;SDS011;48506;48.202;16.274;2023-10-13T01:29:06;14.45;;;7.70;;
49123;SDS011;48506;48.202;16.274;2023-10-13T01:31:38;16.67;;;8.18;;
49123;SDS011;48506;48.202;16.274;2023-10-13T01:34:19;13.85;;;7.07;;
49123;SDS011;48506;48.202;16.274;2023-10-13T01:36:49;18.77;;;7.85;;
49123;SDS011;48506;48.202;16.274;2023-10-13T01:39:17;11.98;;;6.55;;
49123;SDS011;48506;48.202;16.274;2023-10-13T01:41:46;13.07;;;8.13;;
49123;SDS011;48506;48.202;16.274;2023-10-13T01:44:29;14.60;;;7.85;;
49123;SDS011;48506;48.202;16.274;2023-10-13T01:46:58;15.80;;;7.93;;
49123;SDS011;48506;48.202;16.274;2023-10-13T01:49:34;13.68;;;7.30;;
49123;SDS011;48506;48.202;16.274;2023-10-13T01:52:13;14.30;;;7.45;;
49123;SDS011;48506;48.202;16.274;2023-10-13T01:57:12;13.82;;;7.88;;
49123;SDS011;48506;48.202;16.274;2023-10-13T01:59:44;12.15;;;6.97;;
49123;SDS011;48506;48.202;16.274;2023-10-13T02:02:13;13.10;;;6.53;;
49123;SDS011;48506;48.202;16.274;2023-10-13T02:04:41;14.60;;;8.15;;
49123;SDS011;48506;48.202;16.274;2023-10-13T02:07:14;15.68;;;8.77;;
49123;SDS011;48506;48.202;16.274;2023-10-13T02:09:41;10.55;;;6.90;;
49123;SDS011;48506;48.202;16.274;2023-10-13T02:12:11;11.52;;;6.68;;
49123;SDS011;48506;48.202;16.274;2023-10-13T02:14:37;13.40;;;7.45;;
49123;SDS011;48506;48.202;16.274;2023-10-13T02:17:04;15.45;;;8.35;;
49123;SDS011;48506;48.202;16.274;2023-10-13T02:19:41;13.88;;;7.35;;
49123;SDS011;48506;48.202;16.274;2023-10-13T02:22:12;10.65;;;7.03;;
49123;SDS011;48506;48.202;16.274;2023-10-13T02:24:57;15.65;;;8.20;;
49123;SDS011;48506;48.202;16.274;2023-10-13T02:27:27;11.88;;;6.75;;
49123;SDS011;48506;48.202;16.274;2023-10-13T02:29:53;12.25;;;7.28;;
49123;SDS011;48506;48.202;16.274;2023-10-13T02:32:24;18.77;;;8.40;;
49123;SDS011;48506;48.202;16.274;2023-10-13T02:34:52;9.18;;;6.25;;
49123;SDS011;48506;48.202;16.274;2023-10-13T02:37:23;12.07;;;7.43;;
49123;SDS011;48506;48.202;16.274;2023-10-13T02:39:49;13.35;;;7.95;;
49123;SDS011;48506;48.202;16.274;2023-10-13T02:42:14;10.45;;;7.28;;
49123;SDS011;48506;48.202;16.274;2023-10-13T02:44:50;14.23;;;6.78;;
49123;SDS011;48506;48.202;16.274;2023-10-13T02:47:16;11.15;;;6.63;;
49123;SDS011;48506;48.202;16.274;2023-10-13T02:49:44;14.45;;;7.50;;
49123;SDS011;48506;48.202;16.274;2023-10-13T02:52:13;11.20;;;6.30;;
49123;SDS011;48506;48.202;16.274;2023-10-13T02:54:39;11.40;;;6.80;;
49123;SDS011;48506;48.202;16.274;2023-10-13T02:57:13;12.93;;;6.75;;
49123;SDS011;48506;48.202;16.274;2023-10-13T02:59:41;12.15;;;7.78;;
49123;SDS011;48506;48.202;16.274;2023-10-13T03:02:21;13.55;;;7.50;;
49123;SDS011;48506;48.202;16.274;2023-10-13T03:04:54;12.43;;;8.00;;
49123;SDS011;48506;48.202;16.274;2023-10-13T03:07:41;11.80;;;8.00;;
49123;SDS011;48506;48.202;16.274;2023-10-13T03:10:10;9.13;;;7.32;;
49123;SDS011;48506;48.202;16.274;2023-10-13T03:12:37;10.85;;;7.55;;
49123;SDS011;48506;48.202;16.274;2023-10-13T03:15:05;13.75;;;6.95;;
49123;SDS011;48506;48.202;16.274;2023-10-13T03:17:38;14.52;;;7.78;;
49123;SDS011;48506;48.202;16.274;2023-10-13T03:20:09;15.40;;;7.43;;
49123;SDS011;48506;48.202;16.274;2023-10-13T03:22:41;9.05;;;6.43;;
49123;SDS011;48506;48.202;16.274;2023-10-13T03:25:14;18.63;;;9.40;;
49123;SDS011;48506;48.202;16.274;2023-10-13T03:27:49;12.35;;;7.43;;
49123;SDS011;48506;48.202;16.274;2023-10-13T03:30:16;14.18;;;7.20;;
49123;SDS011;48506;48.202;16.274;2023-10-13T03:32:43;17.25;;;7.80;;
49123;SDS011;48506;48.202;16.274;2023-10-13T03:35:11;14.57;;;7.43;;
49123;SDS011;48506;48.202;16.274;2023-10-13T03:37:53;15.13;;;7.57;;
49123;SDS011;48506;48.202;16.274;2023-10-13T03:40:20;13.93;;;7.60;;
49123;SDS011;48506;48.202;16.274;2023-10-13T03:42:48;13.50;;;7.28;;
49123;SDS011;48506;48.202;16.274;2023-10-13T03:45:26;13.93;;;7.88;;
49123;SDS011;48506;48.202;16.274;2023-10-13T03:47:54;15.40;;;8.00;;
49123;SDS011;48506;48.202;16.274;2023-10-13T03:50:20;14.30;;;7.78;;
49123;SDS011;48506;48.202;16.274;2023-10-13T03:52:58;13.40;;;7.65;;
49123;SDS011;48506;48.202;16.274;2023-10-13T03:55:25;11.30;;;7.05;;
49123;SDS011;48506;48.202;16.274;2023-10-13T03:57:52;13.32;;;7.68;;
49123;SDS011;48506;48.202;16.274;2023-10-13T04:00:20;11.98;;;7.70;;
49123;SDS011;48506;48.202;16.274;2023-10-13T04:02:52;11.32;;;7.60;;
49123;SDS011;48506;48.202;16.274;2023-10-13T04:05:29;11.75;;;8.75;;
49123;SDS011;48506;48.202;16.274;2023-10-13T04:08:20;16.15;;;7.97;;
49123;SDS011;48506;48.202;16.274;2023-10-13T04:10:53;12.43;;;6.85;;
49123;SDS011;48506;48.202;16.274;2023-10-13T04:13:21;13.98;;;8.13;;
49123;SDS011;48506;48.202;16.274;2023-10-13T04:16:08;12.93;;;7.20;;
49123;SDS011;48506;48.202;16.274;2023-10-13T04:19:00;15.13;;;7.57;;
49123;SDS011;48506;48.202;16.274;2023-10-13T04:21:28;14.77;;;8.20;;
49123;SDS011;48506;48.202;16.274;2023-10-13T04:24:25;15.90;;;8.52;;
49123;SDS011;48506;48.202;16.274;2023-10-13T04:27:10;13.15;;;7.72;;
49123;SDS011;48506;48.202;16.274;2023-10-13T04:29:54;14.88;;;8.20;;
49123;SDS011;48506;48.202;16.274;2023-10-13T04:32:36;9.77;;;7.55;;
49123;SDS011;48506;48.202;16.274;2023-10-13T04:35:11;12.43;;;6.95;;
49123;SDS011;48506;48.202;16.274;2023-10-13T04:37:37;15.15;;;7.72;;
49123;SDS011;48506;48.202;16.274;2023-10-13T04:40:20;18.00;;;9.77;;
49123;SDS011;48506;48.202;16.274;2023-10-13T04:42:50;15.13;;;8.02;;
49123;SDS011;48506;48.202;16.274;2023-10-13T04:45:22;14.80;;;8.60;;
49123;SDS011;48506;48.202;16.274;2023-10-13T04:48:00;14.63;;;9.10;;
49123;SDS011;48506;48.202;16.274;2023-10-13T04:50:46;14.43;;;8.80;;
49123;SDS011;48506;48.202;16.274;2023-10-13T04:53:17;14.40;;;8.43;;
49123;SDS011;48506;48.202;16.274;2023-10-13T04:56:13;17.10;;;9.82;;
49123;SDS011;48506;48.202;16.274;2023-10-13T04:58:57;14.38;;;7.97;;
49123;SDS011;48506;48.202;16.274;2023-10-13T05:01:44;22.48;;;9.30;;
49123;SDS011;48506;48.202;16.274;2023-10-13T05:04:22;11.85;;;7.50;;
49123;SDS011;48506;48.202;16.274;2023-10-13T05:07:04;15.70;;;9.30;;
49123;SDS011;48506;48.202;16.274;2023-10-13T05:09:49;13.60;;;7.68;;
49123;SDS011;48506;48.202;16.274;2023-10-13T05:12:34;15.90;;;8.35;;
49123;SDS011;48506;48.202;16.274;2023-10-13T05:15:19;17.77;;;7.50;;
49123;SDS011;48506;48.202;16.274;2023-10-13T05:18:04;12.80;;;6.68;;
49123;SDS011;48506;48.202;16.274;2023-10-13T05:20:49;16.35;;;8.70;;
49123;SDS011;48506;48.202;16.274;2023-10-13T05:23:38;18.70;;;9.20;;
49123;SDS011;48506;48.202;16.274;2023-10-13T05:26:22;13.85;;;8.50;;
49123;SDS011;48506;48.202;16.274;2023-10-13T05:29:07;10.27;;;6.90;;
49123;SDS011;48506;48.202;16.274;2023-10-13T05:31:51;15.05;;;8.70;;
49123;SDS011;48506;48.202;16.274;2023-10-13T05:34:36;15.25;;;8.02;;
49123;SDS011;48506;48.202;16.274;2023-10-13T05:37:20;10.93;;;8.07;;
49123;SDS011;48506;48.202;16.274;2023-10-13T05:40:05;16.13;;;7.57;;
49123;SDS011;48506;48.202;16.274;2023-10-13T05:42:51;17.65;;;9.20;;
49123;SDS011;48506;48.202;16.274;2023-10-13T05:45:37;12.10;;;7.68;;
49123;SDS011;48506;48.202;16.274;2023-10-13T05:48:26;12.45;;;7.40;;
49123;SDS011;48506;48.202;16.274;2023-10-13T05:51:11;16.30;;;8.77;;
49123;SDS011;48506;48.202;16.274;2023-10-13T05:53:56;15.70;;;9.75;;
49123;SDS011;48506;48.202;16.274;2023-10-13T05:59:32;15.20;;;8.90;;
49123;SDS011;48506;48.202;16.274;2023-10-13T06:02:18;16.10;;;9.05;;
49123;SDS011;48506;48.202;16.274;2023-10-13T06:05:09;15.25;;;10.73;;
49123;SDS011;48506;48.202;16.274;2023-10-13T06:07:55;17.15;;;10.50;;
49123;SDS011;48506;48.202;16.274;2023-10-13T06:10:40;18.08;;;9.35;;
49123;SDS011;48506;48.202;16.274;2023-10-13T06:13:26;12.65;;;9.25;;
49123;SDS011;48506;48.202;16.274;2023-10-13T06:16:27;17.35;;;10.77;;
49123;SDS011;48506;48.202;16.274;2023-10-13T06:19:12;21.42;;;10.55;;
49123;SDS011;48506;48.202;16.274;2023-10-13T06:21:57;13.98;;;10.00;;
49123;SDS011;48506;48.202;16.274;2023-10-13T06:24:41;22.65;;;10.32;;
49123;SDS011;48506;48.202;16.274;2023-10-13T06:27:26;21.38;;;11.25;;
49123;SDS011;48506;48.202;16.274;2023-10-13T06:30:11;19.30;;;11.90;;
49123;SDS011;48506;48.202;16.274;2023-10-13T06:32:37;17.27;;;10.05;;
49123;SDS011;48506;48.202;16.274;2023-10-13T06:35:06;20.35;;;10.55;;
49123;SDS011;48506;48.202;16.274;2023-10-13T06:37:33;34.45;;;10.20;;
49123;SDS011;48506;48.202;16.274;2023-10-13T06:40:00;14.70;;;9.00;;
49123;SDS011;48506;48.202;16.274;2023-10-13T06:42:32;18.35;;;10.93;;
49123;SDS011;48506;48.202;16.274;2023-10-13T06:45:08;14.73;;;9.65;;
49123;SDS011;48506;48.202;16.274;2023-10-13T06:47:35;16.50;;;9.52;;
49123;SDS011;48506;48.202;16.274;2023-10-13T06:50:08;15.30;;;10.30;;
49123;SDS011;48506;48.202;16.274;2023-10-13T06:52:43;21.80;;;8.95;;
49123;SDS011;48506;48.202;16.274;2023-10-13T06:55:10;15.25;;;8.52;;
49123;SDS011;48506;48.202;16.274;2023-10-13T06:57:57;15.48;;;9.50;;
49123;SDS011;48506;48.202;16.274;2023-10-13T07:00:25;14.70;;;8.73;;
49123;SDS011;48506;48.202;16.274;2023-10-13T07:02:57;15.65;;;8.18;;
49123;SDS011;48506;48.202;16.274;2023-10-13T07:05:37;12.00;;;8.10;;
49123;SDS011;48506;48.202;16.274;2023-10-13T07:08:06;14.88;;;8.63;;
49123;SDS011;48506;48.202;16.274;2023-10-13T07:10:35;15.40;;;9.10;;
49123;SDS011;48506;48.202;16.274;2023-10-13T07:13:13;13.57;;;8.15;;
49123;SDS011;48506;48.202;16.274;2023-10-13T07:15:42;20.23;;;10.05;;
49123;SDS011;48506;48.202;16.274;2023-10-13T07:18:12;12.27;;;7.00;;
49123;SDS011;48506;48.202;16.274;2023-10-13T07:20:41;11.95;;;6.85;;
49123;SDS011;48506;48.202;16.274;2023-10-13T07:23:11;11.73;;;6.65;;
49123;SDS011;48506;48.202;16.274;2023-10-13T07:25:52;13.77;;;5.85;;
49123;SDS011;48506;48.202;16.274;2023-10-13T07:28:29;11.95;;;6.57;;
49123;SDS011;48506;48.202;16.274;2023-10-13T07:31:04;12.63;;;7.25;;
49123;SDS011;48506;48.202;16.274;2023-10-13T07:33:30;11.95;;;7.20;;
49123;SDS011;48506;48.202;16.274;2023-10-13T07:38:26;12.50;;;7.30;;
49123;SDS011;48506;48.202;16.274;2023-10-13T07:40:56;12.20;;;7.45;;
49123;SDS011;48506;48.202;16.274;2023-10-13T07:43:32;11.70;;;6.32;;
49123;SDS011;48506;48.202;16.274;2023-10-13T07:45:58;12.32;;;7.32;;
49123;SDS011;48506;48.202;16.274;2023-10-13T07:48:25;8.43;;;6.22;;
49123;SDS011;48506;48.202;16.274;2023-10-13T07:51:04;11.85;;;5.90;;
49123;SDS011;48506;48.202;16.274;2023-10-13T07:56:09;14.40;;;5.63;;
49123;SDS011;48506;48.202;16.274;2023-10-13T08:01:13;8.27;;;6.22;;
49123;SDS011;48506;48.202;16.274;2023-10-13T08:03:43;8.40;;;5.72;;
49123;SDS011;48506;48.202;16.274;2023-10-13T08:06:11;11.55;;;5.90;;
49123;SDS011;48506;48.202;16.274;2023-10-13T08:08:39;10.10;;;4.75;;
49123;SDS011;48506;48.202;16.274;2023-10-13T08:11:10;10.63;;;5.72;;
49123;SDS011;48506;48.202;16.274;2023-10-13T08:13:40;12.95;;;5.55;;
49123;SDS011;48506;48.202;16.274;2023-10-13T08:16:12;13.43;;;5.07;;
49123;SDS011;48506;48.202;16.274;2023-10-13T08:18:48;9.25;;;5.95;;
49123;SDS011;48506;48.202;16.274;2023-10-13T08:21:16;9.32;;;4.80;;
49123;SDS011;48506;48.202;16.274;2023-10-13T08:23:51;10.40;;;5.13;;
49123;SDS011;48506;48.202;16.274;2023-10-13T08:26:21;16.67;;;5.78;;
49123;SDS011;48506;48.202;16.274;2023-10-13T08:29:03;12.82;;;5.30;;
49123;SDS011;48506;48.202;16.274;2023-10-13T08:31:49;11.27;;;4.75;;
49123;SDS011;48506;48.202;16.274;2023-10-13T08:34:29;9.57;;;4.60;;
49123;SDS011;48506;48.202;16.274;2023-10-13T08:37:06;9.35;;;4.30;;
49123;SDS011;48506;48.202;16.274;2023-10-13T08:39:49;8.77;;;4.78;;
49123;SDS011;48506;48.202;16.274;2023-10-13T08:45:07;11.85;;;4.25;;
49123;SDS011;48506;48.202;16.274;2023-10-13T08:47:54;13.32;;;4.82;;
49123;SDS011;48506;48.202;16.274;2023-10-13T08:58:35;9.35;;;3.97;;
49123;SDS011;48506;48.202;16.274;2023-10-13T09:01:21;12.93;;;5.97;;
49123;SDS011;48506;48.202;16.274;2023-10-13T09:04:18;11.60;;;5.85;;
49123;SDS011;48506;48.202;16.274;2023-10-13T09:06:45;13.45;;;6.32;;
49123;SDS011;48506;48.202;16.274;2023-10-13T09:09:31;11.00;;;5.65;;
49123;SDS011;48506;48.202;16.274;2023-10-13T09:12:22;15.23;;;5.93;;
49123;SDS011;48506;48.202;16.274;2023-10-13T09:15:02;11.15;;;5.47;;
49123;SDS011;48506;48.202;16.274;2023-10-13T09:17:52;19.00;;;6.25;;
49123;SDS011;48506;48.202;16.274;2023-10-13T09:20:38;9.77;;;6.28;;
49123;SDS011;48506;48.202;16.274;2023-10-13T09:23:10;12.90;;;5.88;;
49123;SDS011;48506;48.202;16.274;2023-10-13T09:25:52;10.35;;;5.57;;
49123;SDS011;48506;48.202;16.274;2023-10-13T09:28:34;15.30;;;5.20;;
49123;SDS011;48506;48.202;16.274;2023-10-13T09:31:02;8.43;;;5.10;;
49123;SDS011;48506;48.202;16.274;2023-10-13T09:33:32;7.63;;;4.30;;
49123;SDS011;48506;48.202;16.274;2023-10-13T09:36:04;9.75;;;5.18;;
49123;SDS011;48506;48.202;16.274;2023-10-13T09:38:38;7.13;;;4.15;;
49123;SDS011;48506;48.202;16.274;2023-10-13T09:41:06;11.75;;;4.35;;
49123;SDS011;48506;48.202;16.274;2023-10-13T09:43:59;9.95;;;4.45;;
49123;SDS011;48506;48.202;16.274;2023-10-13T09:46:26;9.27;;;4.05;;
49123;SDS011;48506;48.202;16.274;2023-10-13T09:48:58;6.65;;;3.97;;
49123;SDS011;48506;48.202;16.274;2023-10-13T09:51:34;10.73;;;4.63;;
49123;SDS011;48506;48.202;16.274;2023-10-13T09:54:04;11.63;;;4.85;;
49123;SDS011;48506;48.202;16.274;2023-10-13T09:56:53;7.90;;;4.10;;
49123;SDS011;48506;48.202;16.274;2023-10-13T09:59:32;11.10;;;3.67;;
49123;SDS011;48506;48.202;16.274;2023-10-13T10:02:06;7.13;;;4.15;;
49123;SDS011;48506;48.202;16.274;2023-10-13T10:04:34;8.52;;;3.67;;
49123;SDS011;48506;48.202;16.274;2023-10-13T10:07:23;9.90;;;3.20;;
49123;SDS011;48506;48.202;16.274;2023-10-13T10:09:57;7.28;;;3.85;;
49123;SDS011;48506;48.202;16.274;2023-10-13T10:15:20;9.48;;;4.20;;
49123;SDS011;48506;48.202;16.274;2023-10-13T10:17:56;9.38;;;4.03;;
49123;SDS011;48506;48.202;16.274;2023-10-13T10:20:31;11.05;;;4.97;;
49123;SDS011;48506;48.202;16.274;2023-10-13T10:23:08;11.43;;;4.03;;
49123;SDS011;48506;48.202;16.274;2023-10-13T10:25:47;13.98;;;5.05;;
49123;SDS011;48506;48.202;16.274;2023-10-13T10:28:17;6.25;;;3.55;;
49123;SDS011;48506;48.202;16.274;2023-10-13T10:30:45;7.88;;;4.05;;
49123;SDS011;48506;48.202;16.274;2023-10-13T10:33:11;9.45;;;3.42;;
49123;SDS011;48506;48.202;16.274;2023-10-13T10:35:42;15.75;;;5.45;;
49123;SDS011;48506;48.202;16.274;2023-10-13T10:38:10;8.32;;;3.45;;
49123;SDS011;48506;48.202;16.274;2023-10-13T10:40:50;17.90;;;4.40;;
49123;SDS011;48506;48.202;16.274;2023-10-13T10:43:25;8.88;;;4.18;;
49123;SDS011;48506;48.202;16.274;2023-10-13T10:46:08;12.65;;;4.07;;
49123;SDS011;48506;48.202;16.274;2023-10-13T10:48:37;10.82;;;4.78;;
49123;SDS011;48506;48.202;16.274;2023-10-13T10:51:11;9.65;;;4.18;;
49123;SDS011;48506;48.202;16.274;2023-10-13T10:53:47;7.88;;;3.45;;
49123;SDS011;48506;48.202;16.274;2023-10-13T10:56:16;11.43;;;4.30;;
49123;SDS011;48506;48.202;16.274;2023-10-13T10:58:54;6.85;;;3.40;;
49123;SDS011;48506;48.202;16.274;2023-10-13T11:01:22;7.93;;;4.35;;
49123;SDS011;48506;48.202;16.274;2023-10-13T11:03:52;10.40;;;4.43;;
49123;SDS011;48506;48.202;16.274;2023-10-13T11:06:45;7.78;;;3.58;;
49123;SDS011;48506;48.202;16.274;2023-10-13T11:09:13;9.90;;;4.00;;
49123;SDS011;48506;48.202;16.274;2023-10-13T11:11:52;11.10;;;4.15;;
49123;SDS011;48506;48.202;16.274;2023-10-13T11:14:22;14.55;;;4.53;;
49123;SDS011;48506;48.202;16.274;2023-10-13T11:16:50;15.77;;;4.60;;
49123;SDS011;48506;48.202;16.274;2023-10-13T11:19:38;10.32;;;3.88;;
49123;SDS011;48506;48.202;16.274;2023-10-13T11:22:13;8.05;;;3.92;;
49123;SDS011;48506;48.202;16.274;2023-10-13T11:25:00;6.50;;;3.28;;
49123;SDS011;48506;48.202;16.274;2023-10-13T11:27:38;10.00;;;3.72;;
49123;SDS011;48506;48.202;16.274;2023-10-13T11:30:11;12.18;;;4.70;;
49123;SDS011;48506;48.202;16.274;2023-10-13T11:32:41;10.68;;;4.38;;
49123;SDS011;48506;48.202;16.274;2023-10-13T11:35:09;10.25;;;3.05;;
49123;SDS011;48506;48.202;16.274;2023-10-13T11:37:53;14.18;;;4.05;;
49123;SDS011;48506;48.202;16.274;2023-10-13T11:40:31;12.10;;;4.32;;
49123;SDS011;48506;48.202;16.274;2023-10-13T11:43:10;9.50;;;4.13;;
49123;SDS011;48506;48.202;16.274;2023-10-13T11:45:40;11.15;;;4.05;;
49123;SDS011;48506;48.202;16.274;2023-10-13T11:48:32;9.95;;;3.95;;
49123;SDS011;48506;48.202;16.274;2023-10-13T11:51:05;14.80;;;4.85;;
49123;SDS011;48506;48.202;16.274;2023-10-13T11:53:35;12.32;;;3.20;;
49123;SDS011;48506;48.202;16.274;2023-10-13T11:56:06;10.77;;;3.90;;
49123;SDS011;48506;48.202;16.274;2023-10-13T11:58:35;7.88;;;3.95;;
49123;SDS011;48506;48.202;16.274;2023-10-13T12:01:02;9.15;;;3.63;;
49123;SDS011;48506;48.202;16.274;2023-10-13T12:03:43;9.05;;;4.07;;
49123;SDS011;48506;48.202;16.274;2023-10-13T12:06:30;9.88;;;3.75;;
49123;SDS011;48506;48.202;16.274;2023-10-13T12:09:10;7.03;;;3.90;;
49123;SDS011;48506;48.202;16.274;2023-10-13T12:11:39;7.25;;;3.85;;
49123;SDS011;48506;48.202;16.274;2023-10-13T12:14:07;13.68;;;4.90;;
49123;SDS011;48506;48.202;16.274;2023-10-13T12:16:56;8.85;;;3.17;;
49123;SDS011;48506;48.202;16.274;2023-10-13T12:19:29;9.20;;;3.67;;
49123;SDS011;48506;48.202;16.274;2023-10-13T12:21:57;9.98;;;3.88;;
49123;SDS011;48506;48.202;16.274;2023-10-13T12:24:43;9.32;;;3.90;;
49123;SDS011;48506;48.202;16.274;2023-10-13T12:27:18;8.90;;;3.60;;
49123;SDS011;48506;48.202;16.274;2023-10-13T12:29:48;13.20;;;4.50;;
49123;SDS011;48506;48.202;16.274;2023-10-13T12:32:19;8.05;;;3.67;;
49123;SDS011;48506;48.202;16.274;2023-10-13T12:34:56;9.00;;;4.07;;
49123;SDS011;48506;48.202;16.274;2023-10-13T12:37:23;5.90;;;3.60;;
49123;SDS011;48506;48.202;16.274;2023-10-13T12:42:49;8.70;;;3.47;;
49123;SDS011;48506;48.202;16.274;2023-10-13T12:45:33;8.65;;;3.78;;
49123;SDS011;48506;48.202;16.274;2023-10-13T12:48:25;6.97;;;4.03;;
49123;SDS011;48506;48.202;16.274;2023-10-13T12:51:10;7.65;;;3.50;;
49123;SDS011;48506;48.202;16.274;2023-10-13T12:53:56;9.77;;;4.03;;
49123;SDS011;48506;48.202;16.274;2023-10-13T12:56:40;8.32;;;4.00;;
49123;SDS011;48506;48.202;16.274;2023-10-13T12:59:09;14.13;;;4.50;;
49123;SDS011;48506;48.202;16.274;2023-10-13T13:01:39;13.52;;;4.05;;
49123;SDS011;48506;48.202;16.274;2023-10-13T13:04:09;9.30;;;3.60;;
49123;SDS011;48506;48.202;16.274;2023-10-13T13:06:48;9.20;;;4.38;;
49123;SDS011;48506;48.202;16.274;2023-10-13T13:09:15;9.73;;;4.00;;
49123;SDS011;48506;48.202;16.274;2023-10-13T13:11:53;7.95;;;3.80;;
49123;SDS011;48506;48.202;16.274;2023-10-13T13:14:23;8.70;;;3.63;;
49123;SDS011;48506;48.202;16.274;2023-10-13T13:16:56;10.25;;;3.72;;
49123;SDS011;48506;48.202;16.274;2023-10-13T13:19:38;9.30;;;4.20;;
49123;SDS011;48506;48.202;16.274;2023-10-13T13:22:04;7.55;;;3.85;;
49123;SDS011;48506;48.202;16.274;2023-10-13T13:24:39;11.20;;;4.63;;
49123;SDS011;48506;48.202;16.274;2023-10-13T13:27:15;12.20;;;4.40;;
49123;SDS011;48506;48.202;16.274;2023-10-13T13:29:47;11.63;;;3.72;;
49123;SDS011;48506;48.202;16.274;2023-10-13T13:32:13;13.98;;;4.22;;
49123;SDS011;48506;48.202;16.274;2023-10-13T13:34:51;7.78;;;3.63;;
49123;SDS011;48506;48.202;16.274;2023-10-13T13:37:24;7.38;;;4.05;;
49123;SDS011;48506;48.202;16.274;2023-10-13T13:39:52;6.32;;;4.18;;
49123;SDS011;48506;48.202;16.274;2023-10-13T13:42:19;8.30;;;3.97;;
49123;SDS011;48506;48.202;16.274;2023-10-13T13:44:45;11.45;;;3.80;;
49123;SDS011;48506;48.202;16.274;2023-10-13T13:47:12;6.18;;;3.63;;
49123;SDS011;48506;48.202;16.274;2023-10-13T13:49:39;11.85;;;3.95;;
49123;SDS011;48506;48.202;16.274;2023-10-13T13:52:17;5.55;;;3.47;;
49123;SDS011;48506;48.202;16.274;2023-10-13T13:54:48;6.78;;;3.65;;
49123;SDS011;48506;48.202;16.274;2023-10-13T13:57:14;7.18;;;3.65;;
49123;SDS011;48506;48.202;16.274;2023-10-13T13:59:40;8.35;;;3.55;;
49123;SDS011;48506;48.202;16.274;2023-10-13T14:02:10;21.67;;;4.40;;
49123;SDS011;48506;48.202;16.274;2023-10-13T14:04:46;7.72;;;3.22;;
49123;SDS011;48506;48.202;16.274;2023-10-13T14:07:15;11.30;;;3.67;;
49123;SDS011;48506;48.202;16.274;2023-10-13T14:12:17;7.68;;;3.63;;
49123;SDS011;48506;48.202;16.274;2023-10-13T14:15:16;12.63;;;3.40;;
49123;SDS011;48506;48.202;16.274;2023-10-13T14:17:48;10.63;;;4.10;;
49123;SDS011;48506;48.202;16.274;2023-10-13T14:20:15;13.30;;;4.03;;
49123;SDS011;48506;48.202;16.274;2023-10-13T14:22:44;12.48;;;4.72;;
49123;SDS011;48506;48.202;16.274;2023-10-13T14:25:14;12.43;;;3.90;;
49123;SDS011;48506;48.202;16.274;2023-10-13T14:27:42;8.02;;;3.30;;
49123;SDS011;48506;48.202;16.274;2023-10-13T14:30:08;11.10;;;3.63;;
49123;SDS011;48506;48.202;16.274;2023-10-13T14:32:35;7.00;;;3.65;;
49123;SDS011;48506;48.202;16.274;2023-10-13T14:35:06;6.80;;;4.32;;
49123;SDS011;48506;48.202;16.274;2023-10-13T14:37:40;11.60;;;3.70;;
49123;SDS011;48506;48.202;16.274;2023-10-13T14:40:06;13.90;;;5.03;;
49123;SDS011;48506;48.202;16.274;2023-10-13T14:42:38;13.15;;;4.88;;
49123;SDS011;48506;48.202;16.274;2023-10-13T14:45:06;9.90;;;3.85;;
49123;SDS011;48506;48.202;16.274;2023-10-13T14:47:41;11.65;;;4.35;;
49123;SDS011;48506;48.202;16.274;2023-10-13T14:52:47;7.35;;;4.35;;
49123;SDS011;48506;48.202;16.274;2023-10-13T14:55:14;15.27;;;5.18;;
49123;SDS011;48506;48.202;16.274;2023-10-13T14:57:49;9.13;;;3.80;;
49123;SDS011;48506;48.202;16.274;2023-10-13T15:00:16;10.50;;;3.92;;
49123;SDS011;48506;48.202;16.274;2023-10-13T15:02:50;16.02;;;4.72;;
49123;SDS011;48506;48.202;16.274;2023-10-13T15:05:18;11.00;;;4.05;;
49123;SDS011;48506;48.202;16.274;2023-10-13T15:07:44;12.00;;;4.20;;
49123;SDS011;48506;48.202;16.274;2023-10-13T15:10:11;6.93;;;3.75;;
49123;SDS011;48506;48.202;16.274;2023-10-13T15:12:43;11.80;;;4.45;;
49123;SDS011;48506;48.202;16.274;2023-10-13T15:15:14;8.23;;;3.60;;
49123;SDS011;48506;48.202;16.274;2023-10-13T15:17:42;10.82;;;4.95;;
49123;SDS011;48506;48.202;16.274;2023-10-13T15:20:09;12.77;;;4.70;;
49123;SDS011;48506;48.202;16.274;2023-10-13T15:22:44;11.02;;;4.53;;
49123;SDS011;48506;48.202;16.274;2023-10-13T15:25:12;9.50;;;4.43;;
49123;SDS011;48506;48.202;16.274;2023-10-13T15:28:00;8.98;;;4.53;;
49123;SDS011;48506;48.202;16.274;2023-10-13T15:30:33;9.10;;;4.68;;
49123;SDS011;48506;48.202;16.274;2023-10-13T15:33:18;7.70;;;3.67;;
49123;SDS011;48506;48.202;16.274;2023-10-13T15:35:45;9.18;;;3.72;;
49123;SDS011;48506;48.202;16.274;2023-10-13T15:38:11;10.93;;;4.22;;
49123;SDS011;48506;48.202;16.274;2023-10-13T15:40:41;12.30;;;4.18;;
49123;SDS011;48506;48.202;16.274;2023-10-13T15:43:08;8.43;;;4.20;;